Time;durP1;ratioP1;P1;durP2;ratioP2;P2;SDS_P1;SDS_P2;PMS_P1;PMS_P2;Temp;Humidity;BMP_temperature;BMP_pressure;BME280_temperature;BME280_humidity;BME280_pressure;Samples;Min_cycle;Max_cycle;Signal;HPM_P1;HPM_P2
2023/04/14 00:00:24;;;;;;;;;;;;;;;14.04;48.48;94255.63;5095251;28;1017;-55
2023/04/14 00:02:51;;;;;;;;;;;;;;;14.07;48.51;94255.19;5095454;28;1036;-54
2023/04/14 00:05:17;;;;;;;;;;;;;;;14.13;48.24;94259.75;5095330;28;1036;-55
2023/04/14 00:07:43;;;;;;;;;;;;;;;14.19;48.16;94250.88;5095075;28;2041;-56
2023/04/14 00:10:09;;;;;;;;;;;;;;;14.16;48.93;94258.53;5095211;28;1977;-55
2023/04/14 00:12:35;;;;;;;;;;;;;;;14.03;48.79;94248.56;5095116;28;1053;-55
2023/04/14 00:15:01;;;;;;;;;;;;;;;13.96;49.05;94259.34;5095180;28;1933;-55
2023/04/14 00:17:27;;;;;;;;;;;;;;;13.91;49.33;94250.22;5095306;28;1187;-55
2023/04/14 00:19:53;;;;;;;;;;;;;;;13.75;49.85;94243.34;5095300;28;1241;-54
2023/04/14 00:22:20;;;;;;;;;;;;;;;13.64;50.15;94247.47;5094382;28;1053;-55
2023/04/14 00:24:46;;;;;;;;;;;;;;;13.55;50.28;94254.06;5095145;28;1000;-54
2023/04/14 00:27:12;;;;;;;;;;;;;;;13.43;50.94;94241.19;5094925;28;1040;-54
2023/04/14 00:29:38;;;;;;;;;;;;;;;13.40;51.55;94251.50;5094938;28;957;-55
2023/04/14 00:32:05;;;;;;;;;;;;;;;13.34;51.79;94245.09;5094888;28;961;-55
2023/04/14 00:34:31;;;;;;;;;;;;;;;13.25;51.81;94249.75;5094603;28;1917;-55
2023/04/14 00:36:57;;;;;;;;;;;;;;;13.12;52.44;94247.00;5094903;28;1024;-55
2023/04/14 00:39:23;;;;;;;;;;;;;;;13.09;52.64;94239.38;5094733;28;1035;-54
2023/04/14 00:41:49;;;;;;;;;;;;;;;13.07;52.80;94249.44;5094774;28;1598;-54
2023/04/14 00:44:15;;;;;;;;;;;;;;;12.99;53.00;94255.81;5094345;28;1424;-55
2023/04/14 00:46:41;;;;;;;;;;;;;;;12.96;53.55;94252.72;5094501;28;1041;-54
2023/04/14 00:49:07;;;;;;;;;;;;;;;12.97;53.65;94251.69;5094750;28;1027;-54
2023/04/14 00:51:34;;;;;;;;;;;;;;;12.98;53.50;94251.47;5093062;28;1111;-54
2023/04/14 00:54:02;;;;;;;;;;;;;;;13.03;53.29;94257.09;5094504;28;1000;-54
2023/04/14 00:56:30;;;;;;;;;;;;;;;13.03;53.25;94261.59;5094149;28;1874;-54
2023/04/14 00:58:59;;;;;;;;;;;;;;;13.05;53.18;94271.13;5094288;28;1091;-54
2023/04/14 01:01:27;;;;;;;;;;;;;;;13.09;53.32;94264.34;5094332;28;976;-55
2023/04/14 01:03:53;;;;;;;;;;;;;;;13.09;53.60;94267.03;5094222;28;1048;-55
2023/04/14 01:06:19;;;;;;;;;;;;;;;13.13;53.34;94261.25;5094332;28;1044;-55
2023/04/14 01:08:46;;;;;;;;;;;;;;;13.09;53.38;94258.16;5094093;28;1096;-55
2023/04/14 01:11:27;;;;;;;;;;;;;;;13.13;53.28;94255.88;5093948;28;1239;-55
2023/04/14 01:13:56;;;;;;;;;;;;;;;13.13;53.06;94255.88;5094172;28;1043;-55
2023/04/14 01:16:28;;;;;;;;;;;;;;;13.14;52.92;94244.94;5093835;28;1967;-55
2023/04/14 01:18:55;;;;;;;;;;;;;;;13.09;53.28;94245.56;5093863;28;1081;-55
2023/04/14 01:21:27;;;;;;;;;;;;;;;13.11;53.12;94240.00;5093831;28;1049;-55
2023/04/14 01:24:02;;;;;;;;;;;;;;;13.15;53.06;94241.25;5093752;28;1021;-55
2023/04/14 01:26:29;;;;;;;;;;;;;;;13.12;53.35;94244.31;5093767;28;1041;-55
2023/04/14 01:28:55;;;;;;;;;;;;;;;13.14;53.54;94244.94;5093808;28;1021;-55
2023/04/14 01:31:25;;;;;;;;;;;;;;;13.10;53.64;94243.69;5093670;28;973;-55
2023/04/14 01:33:58;;;;;;;;;;;;;;;13.09;53.39;94234.00;5093257;28;1040;-54
2023/04/14 01:36:37;;;;;;;;;;;;;;;12.99;53.47;94220.94;5093824;28;1906;-54
2023/04/14 01:39:05;;;;;;;;;;;;;;;13.05;53.23;94225.53;5093475;28;1028;-55
2023/04/14 01:41:32;;;;;;;;;;;;;;;13.13;52.94;94232.56;5093671;28;1431;-55
2023/04/14 01:43:59;;;;;;;;;;;;;;;13.22;52.62;94235.91;5093362;28;1164;-56
2023/04/14 01:46:25;;;;;;;;;;;;;;;13.32;52.35;94233.72;5093530;28;1119;-56
2023/04/14 01:48:52;;;;;;;;;;;;;;;13.41;52.08;94227.16;5093438;28;1101;-56
2023/04/14 01:51:18;;;;;;;;;;;;;;;13.38;52.03;94235.59;5092499;28;945;-55
2023/04/14 01:53:45;;;;;;;;;;;;;;;13.44;51.71;94228.59;5093509;28;1063;-55
2023/04/14 01:56:12;;;;;;;;;;;;;;;13.40;52.00;94222.78;5093327;28;1910;-54
2023/04/14 01:58:38;;;;;;;;;;;;;;;13.42;51.97;94220.75;5092187;28;1068;-56
2023/04/14 02:01:05;;;;;;;;;;;;;;;13.52;51.95;94230.28;5093571;28;1032;-55
2023/04/14 02:03:31;;;;;;;;;;;;;;;13.55;52.15;94235.25;5093282;28;1124;-55
2023/04/14 02:05:57;;;;;;;;;;;;;;;13.35;53.89;94222.56;5093481;28;993;-55
2023/04/14 02:08:24;;;;;;;;;;;;;;;13.12;54.35;94227.41;5093316;28;1148;-56
2023/04/14 02:10:51;;;;;;;;;;;;;;;12.95;55.14;94219.66;5093558;28;1039;-56
2023/04/14 02:13:18;;;;;;;;;;;;;;;12.83;55.42;94216.72;5093170;28;1029;-55
2023/04/14 02:15:46;;;;;;;;;;;;;;;12.77;56.10;94211.34;5093451;28;1910;-55
2023/04/14 02:18:13;;;;;;;;;;;;;;;12.62;55.86;94209.59;5093124;28;1198;-56
2023/04/14 02:20:43;;;;;;;;;;;;;;;12.34;56.27;94206.09;5093286;28;1042;-55
2023/04/14 02:23:10;;;;;;;;;;;;;;;12.29;56.92;94210.19;5093050;28;1080;-55
2023/04/14 02:25:39;;;;;;;;;;;;;;;12.14;57.83;94212.13;5093292;28;1040;-55
2023/04/14 02:28:07;;;;;;;;;;;;;;;12.06;57.99;94214.94;5093097;28;1317;-55
2023/04/14 02:30:41;;;;;;;;;;;;;;;12.15;58.11;94208.41;5093195;28;1000;-55
2023/04/14 02:33:09;;;;;;;;;;;;;;;12.29;57.89;94207.50;5093039;28;1049;-56
2023/04/14 02:35:58;;;;;;;;;;;;;;;12.26;58.19;94205.22;5093253;28;1910;-55
2023/04/14 02:38:24;;;;;;;;;;;;;;;12.57;56.52;94206.66;5084771;28;2121;-55
2023/04/14 02:40:50;;;;;;;;;;;;;;;12.84;55.61;94201.44;5093205;28;1531;-55
2023/04/14 02:43:36;;;;;;;;;;;;;;;12.96;55.58;94191.81;5092962;28;1120;-56
2023/04/14 02:46:04;;;;;;;;;;;;;;;13.05;54.57;94182.59;5096817;28;2231;-55
2023/04/14 02:48:32;;;;;;;;;;;;;;;13.06;54.06;94176.19;5097049;28;1277;-55
2023/04/14 02:51:00;;;;;;;;;;;;;;;12.96;53.92;94162.31;5096718;28;997;-55
2023/04/14 02:53:26;;;;;;;;;;;;;;;13.03;54.08;94162.31;5096659;28;1060;-55
2023/04/14 02:55:52;;;;;;;;;;;;;;;12.95;54.09;94151.78;5096577;28;1975;-55
2023/04/14 02:58:18;;;;;;;;;;;;;;;12.86;54.17;94151.09;5096704;28;1004;-55
2023/04/14 03:00:45;;;;;;;;;;;;;;;12.95;54.08;94154.47;5096634;28;1004;-55
2023/04/14 03:03:12;;;;;;;;;;;;;;;13.13;53.38;94157.44;5095288;28;1049;-55
2023/04/14 03:05:39;;;;;;;;;;;;;;;13.11;53.21;94153.28;5096768;28;1055;-55
2023/04/14 03:08:07;;;;;;;;;;;;;;;13.06;53.92;94149.34;5095187;28;1878;-55
2023/04/14 03:10:33;;;;;;;;;;;;;;;12.75;55.92;94135.59;5096527;28;989;-55
2023/04/14 03:13:01;;;;;;;;;;;;;;;12.67;56.19;94145.47;5096304;28;1132;-55
2023/04/14 03:15:27;;;;;;;;;;;;;;;12.60;56.39;94136.56;5096239;28;1909;-55
2023/04/14 03:17:55;;;;;;;;;;;;;;;12.56;56.75;94154.06;5096546;28;1004;-55
2023/04/14 03:20:22;;;;;;;;;;;;;;;12.48;57.00;94146.16;5096184;28;1041;-55
2023/04/14 03:23:13;;;;;;;;;;;;;;;12.06;58.42;94127.34;5096259;28;1210;-55
2023/04/14 03:25:39;;;;;;;;;;;;;;;11.89;59.06;94137.53;5095959;28;1657;-55
2023/04/14 03:28:08;;;;;;;;;;;;;;;12.26;57.85;94138.22;5096080;28;1049;-55
2023/04/14 03:30:35;;;;;;;;;;;;;;;12.71;56.06;94135.19;5096185;28;1039;-55
2023/04/14 03:33:05;;;;;;;;;;;;;;;13.12;54.74;94128.94;5096190;28;1044;-55
2023/04/14 03:35:31;;;;;;;;;;;;;;;13.37;54.06;94125.72;5095693;28;1997;-54
2023/04/14 03:37:59;;;;;;;;;;;;;;;13.60;53.36;94139.63;5095987;28;1234;-55
2023/04/14 03:40:29;;;;;;;;;;;;;;;13.76;52.53;94149.13;5095675;28;1540;-55
2023/04/14 03:42:57;;;;;;;;;;;;;;;13.92;52.16;94152.44;5095685;28;1231;-57
2023/04/14 03:45:25;;;;;;;;;;;;;;;14.10;51.21;94154.53;5095972;28;1043;-55
2023/04/14 03:47:54;;;;;;;;;;;;;;;14.27;50.46;94163.00;5095695;28;1033;-55
2023/04/14 03:50:21;;;;;;;;;;;;;;;14.42;50.19;94158.22;5095633;28;1059;-56
2023/04/14 03:52:49;;;;;;;;;;;;;;;14.44;50.63;94165.03;5095535;28;1064;-56
2023/04/14 03:55:17;;;;;;;;;;;;;;;14.41;50.52;94153.88;5095209;28;1987;-56
2023/04/14 03:57:43;;;;;;;;;;;;;;;14.50;50.11;94149.13;5095014;28;1094;-56
2023/04/14 04:00:11;;;;;;;;;;;;;;;14.53;49.86;94149.53;5095759;28;961;-55
2023/04/14 04:02:38;;;;;;;;;;;;;;;14.54;49.83;94151.16;5095311;28;1096;-54
2023/04/14 04:05:05;;;;;;;;;;;;;;;14.25;52.55;94137.16;5095658;28;1016;-55
2023/04/14 04:07:31;;;;;;;;;;;;;;;13.78;53.36;94132.81;5095545;28;996;-55
2023/04/14 04:09:57;;;;;;;;;;;;;;;13.62;53.78;94147.44;5095222;28;1120;-55
2023/04/14 04:12:25;;;;;;;;;;;;;;;13.76;53.34;94146.44;5095343;28;969;-54
2023/04/14 04:14:51;;;;;;;;;;;;;;;13.84;53.19;94154.28;5095324;28;1901;-55
2023/04/14 04:17:18;;;;;;;;;;;;;;;13.81;51.84;94149.34;5093996;28;956;-55
2023/04/14 04:19:45;;;;;;;;;;;;;;;13.93;51.15;94159.50;5095338;28;1065;-55
2023/04/14 04:22:14;;;;;;;;;;;;;;;14.03;50.52;94162.56;5094867;28;1077;-55
2023/04/14 04:24:41;;;;;;;;;;;;;;;13.99;50.55;94158.66;5095237;28;981;-55
2023/04/14 04:27:07;;;;;;;;;;;;;;;13.96;50.65;94149.16;5095106;28;1012;-54
2023/04/14 04:29:33;;;;;;;;;;;;;;;14.00;50.51;94152.22;5095027;28;1027;-54
2023/04/14 04:31:59;;;;;;;;;;;;;;;13.95;50.64;94155.56;5094785;28;1020;-54
2023/04/14 04:34:27;;;;;;;;;;;;;;;13.81;51.08;94152.03;5094496;28;1906;-55
2023/04/14 04:36:53;;;;;;;;;;;;;;;13.74;51.08;94159.25;5094678;28;965;-54
2023/04/14 04:39:19;;;;;;;;;;;;;;;13.72;51.43;94160.50;5094558;28;1080;-54
2023/04/14 04:41:45;;;;;;;;;;;;;;;13.73;50.93;94148.72;5094799;28;1534;-54
2023/04/14 04:44:11;;;;;;;;;;;;;;;13.79;51.46;94150.56;5094372;28;1152;-54
2023/04/14 04:46:43;;;;;;;;;;;;;;;13.82;52.88;94145.63;5094768;28;1013;-55
2023/04/14 04:49:09;;;;;;;;;;;;;;;13.84;52.68;94148.09;5094537;28;1047;-55
2023/04/14 04:51:35;;;;;;;;;;;;;;;13.80;53.44;94141.50;5094476;28;1185;-55
2023/04/14 04:54:01;;;;;;;;;;;;;;;13.70;53.18;94139.22;5094450;28;1005;-55
2023/04/14 04:56:27;;;;;;;;;;;;;;;13.75;52.74;94128.66;5094146;28;1909;-55
2023/04/14 04:58:53;;;;;;;;;;;;;;;13.74;54.00;94129.72;5094300;28;1170;-55
2023/04/14 05:01:19;;;;;;;;;;;;;;;13.84;52.99;94126.63;5094389;28;953;-55
2023/04/14 05:03:45;;;;;;;;;;;;;;;13.83;52.85;94131.16;5094267;28;956;-55
2023/04/14 05:06:12;;;;;;;;;;;;;;;13.83;52.62;94125.78;5094017;28;1083;-55
2023/04/14 05:08:38;;;;;;;;;;;;;;;14.00;51.05;94122.69;5093957;28;1037;-54
2023/04/14 05:11:04;;;;;;;;;;;;;;;14.06;51.08;94111.94;5094050;28;1093;-54
2023/04/14 05:13:31;;;;;;;;;;;;;;;14.11;50.60;94115.84;5094199;28;1006;-54
2023/04/14 05:16:01;;;;;;;;;;;;;;;14.15;50.66;94109.88;5093936;28;1910;-53
2023/04/14 05:18:27;;;;;;;;;;;;;;;14.23;50.21;94111.50;5094179;28;1032;-53
2023/04/14 05:20:53;;;;;;;;;;;;;;;14.25;50.11;94104.88;5093786;28;1032;-54
2023/04/14 05:23:19;;;;;;;;;;;;;;;14.22;50.24;94089.16;5093585;28;1051;-53
2023/04/14 05:25:45;;;;;;;;;;;;;;;14.31;49.72;94088.97;5093718;28;1128;-54
2023/04/14 05:28:13;;;;;;;;;;;;;;;14.42;49.44;94091.00;5093641;28;1057;-54
2023/04/14 05:30:39;;;;;;;;;;;;;;;14.42;48.99;94096.38;5093980;28;957;-54
2023/04/14 05:33:05;;;;;;;;;;;;;;;14.51;49.25;94084.34;5093754;28;965;-55
2023/04/14 05:35:31;;;;;;;;;;;;;;;14.75;48.82;94085.53;5093367;28;1987;-53
2023/04/14 05:37:57;;;;;;;;;;;;;;;14.87;49.04;94082.19;5093580;28;1001;-54
2023/04/14 05:43:44;;;;;;;;;;;;;;;15.10;49.32;94070.88;5073456;28;1156;-54
2023/04/14 05:46:10;;;;;;;;;;;;;;;15.12;47.98;94071.50;5073190;28;1028;-54
2023/04/14 05:48:37;;;;;;;;;;;;;;;14.95;48.82;94055.88;5073537;28;1072;-54
2023/04/14 05:51:03;;;;;;;;;;;;;;;14.93;48.83;94047.19;5073120;28;1042;-54
2023/04/14 05:53:30;;;;;;;;;;;;;;;15.05;48.77;94044.63;5073284;28;1063;-54
2023/04/14 05:55:56;;;;;;;;;;;;;;;15.17;49.14;94053.66;5073115;28;1996;-54
2023/04/14 05:58:22;;;;;;;;;;;;;;;15.18;49.26;94043.72;5073059;28;1037;-54
2023/04/14 06:00:48;;;;;;;;;;;;;;;15.22;49.19;94047.63;5073201;28;1083;-54
2023/04/14 06:03:15;;;;;;;;;;;;;;;15.25;49.47;94039.09;5073341;28;1057;-54
2023/04/14 06:05:41;;;;;;;;;;;;;;;15.21;49.78;94032.50;5073160;28;1036;-54
2023/04/14 06:08:07;;;;;;;;;;;;;;;15.22;50.08;94026.09;5073212;28;980;-54
2023/04/14 06:10:34;;;;;;;;;;;;;;;15.27;49.38;94020.91;5072990;28;939;-53
2023/04/14 06:13:00;;;;;;;;;;;;;;;15.34;49.58;94016.25;5072979;28;1902;-54
2023/04/14 06:15:28;;;;;;;;;;;;;;;15.25;49.33;94008.66;5072890;28;1910;-54
2023/04/14 06:17:54;;;;;;;;;;;;;;;15.20;49.89;94001.25;5073281;28;1009;-54
2023/04/14 06:20:20;;;;;;;;;;;;;;;15.27;49.25;94002.03;5075979;28;988;-54
2023/04/14 06:22:46;;;;;;;;;;;;;;;15.11;50.75;93981.84;5077365;28;1042;-54
2023/04/14 06:25:12;;;;;;;;;;;;;;;15.00;51.39;93980.66;5077036;28;1120;-53
2023/04/14 06:27:38;;;;;;;;;;;;;;;15.02;51.93;93965.16;5077271;28;981;-53
2023/04/14 06:30:05;;;;;;;;;;;;;;;15.01;51.74;93968.06;5077173;28;977;-54
2023/04/14 06:32:31;;;;;;;;;;;;;;;15.07;51.60;93961.78;5076764;28;1037;-57
2023/04/14 06:34:57;;;;;;;;;;;;;;;15.33;51.31;93955.38;5076689;28;1984;-54
2023/04/14 06:37:24;;;;;;;;;;;;;;;15.36;50.94;93946.84;5076790;28;1051;-55
2023/04/14 06:39:50;;;;;;;;;;;;;;;15.40;51.23;93931.94;5076710;28;1017;-54
2023/04/14 06:42:16;;;;;;;;;;;;;;;15.57;51.61;93920.56;5092461;28;1540;-56
2023/04/14 06:44:42;;;;;;;;;;;;;;;15.85;48.57;93938.97;5096806;28;1383;-55
2023/04/14 06:47:08;;;;;;;;;;;;;;;16.13;45.67;93941.16;5095571;28;1021;-55
2023/04/14 06:49:35;;;;;;;;;;;;;;;16.64;44.36;93938.25;5096931;28;1060;-56
2023/04/14 06:52:02;;;;;;;;;;;;;;;16.93;43.60;93950.97;5096960;28;1083;-55
2023/04/14 06:54:30;;;;;;;;;;;;;;;17.11;41.67;93951.94;5096567;28;1914;-55
2023/04/14 06:56:56;;;;;;;;;;;;;;;17.29;40.93;93954.59;5096915;28;953;-56
2023/04/14 06:59:26;;;;;;;;;;;;;;;17.36;41.41;93941.81;5096850;28;988;-55
2023/04/14 07:01:52;;;;;;;;;;;;;;;17.48;41.01;93946.41;5096510;28;1041;-55
2023/04/14 07:04:19;;;;;;;;;;;;;;;17.46;40.55;93937.72;5096319;28;1100;-55
2023/04/14 07:06:44;;;;;;;;;;;;;;;17.50;41.12;93963.19;5096402;28;1096;-55
2023/04/14 07:09:10;;;;;;;;;;;;;;;17.51;41.03;93957.56;5095097;28;1069;-55
2023/04/14 07:11:39;;;;;;;;;;;;;;;17.51;40.69;93954.88;5096480;28;996;-55
2023/04/14 07:14:05;;;;;;;;;;;;;;;17.47;40.83;93961.78;5096268;28;1067;-55
2023/04/14 07:16:31;;;;;;;;;;;;;;;17.45;40.72;93982.78;5096379;28;1914;-55
2023/04/14 07:18:57;;;;;;;;;;;;;;;17.54;41.51;93970.59;5096416;28;1027;-55
2023/04/14 07:21:23;;;;;;;;;;;;;;;17.60;40.72;93968.84;5096126;28;1041;-55
2023/04/14 07:23:49;;;;;;;;;;;;;;;17.68;41.10;93973.91;5096118;28;1619;-55
2023/04/14 07:26:15;;;;;;;;;;;;;;;17.73;40.73;93970.50;5096057;28;1039;-55
2023/04/14 07:28:41;;;;;;;;;;;;;;;17.79;40.68;93985.78;5096235;28;1067;-55
2023/04/14 07:31:08;;;;;;;;;;;;;;;17.87;40.77;93971.97;5094621;28;1124;-55
2023/04/14 07:33:34;;;;;;;;;;;;;;;18.01;41.11;93988.75;5095869;28;1048;-55
2023/04/14 07:36:03;;;;;;;;;;;;;;;17.99;40.63;93990.06;5095631;28;1909;-55
2023/04/14 07:38:31;;;;;;;;;;;;;;;18.03;40.08;93988.53;5095593;28;1057;-55
2023/04/14 07:40:57;;;;;;;;;;;;;;;18.01;40.49;93991.47;5095894;28;1308;-55
2023/04/14 07:43:23;;;;;;;;;;;;;;;18.09;40.22;94004.63;5095285;28;1879;-56
2023/04/14 07:45:50;;;;;;;;;;;;;;;18.20;39.93;93994.88;5095613;28;1107;-55
2023/04/14 07:48:18;;;;;;;;;;;;;;;18.39;40.32;93984.72;5095494;28;1055;-55
2023/04/14 07:50:45;;;;;;;;;;;;;;;18.53;39.39;93999.66;5095574;28;1008;-53
2023/04/14 07:53:11;;;;;;;;;;;;;;;18.54;39.12;93995.88;5095486;28;1070;-55
2023/04/14 07:55:37;;;;;;;;;;;;;;;18.57;38.96;93982.94;5095252;28;1910;-55
2023/04/14 07:58:03;;;;;;;;;;;;;;;18.61;39.02;93987.63;5095268;28;1012;-55
2023/04/14 08:00:29;;;;;;;;;;;;;;;18.60;38.65;93987.88;5095403;28;1047;-55
2023/04/14 08:02:55;;;;;;;;;;;;;;;18.42;38.97;93991.53;5095299;28;1043;-56
2023/04/14 08:05:21;;;;;;;;;;;;;;;18.34;39.17;93971.94;5095411;28;1024;-55
2023/04/14 08:07:48;;;;;;;;;;;;;;;18.28;38.78;93969.34;5095423;28;1044;-55
2023/04/14 08:10:14;;;;;;;;;;;;;;;18.32;38.19;93967.78;5095024;28;1096;-55
2023/04/14 08:12:40;;;;;;;;;;;;;;;18.27;38.16;93965.81;5094983;28;1064;-55
2023/04/14 08:15:06;;;;;;;;;;;;;;;19.00;37.07;93977.06;5095093;28;2000;-56
2023/04/14 08:17:32;;;;;;;;;;;;;;;20.15;34.92;93990.41;5095110;28;966;-56
2023/04/14 08:19:58;;;;;;;;;;;;;;;20.79;33.81;93984.50;5094945;28;1037;-56
2023/04/14 08:22:24;;;;;;;;;;;;;;;21.08;32.91;93994.31;5094862;28;1032;-55
2023/04/14 08:24:50;;;;;;;;;;;;;;;21.50;32.69;93997.25;5094778;28;1100;-56
2023/04/14 08:27:16;;;;;;;;;;;;;;;21.81;32.03;94009.22;5094900;28;979;-55
2023/04/14 08:29:42;;;;;;;;;;;;;;;21.93;32.07;94002.78;5094891;28;1029;-54
2023/04/14 08:32:08;;;;;;;;;;;;;;;22.41;30.91;94012.72;5094951;28;1192;-56
2023/04/14 08:34:34;;;;;;;;;;;;;;;22.73;30.20;94024.63;5094367;28;2017;-57
2023/04/14 08:37:00;;;;;;;;;;;;;;;22.87;30.24;94016.78;5094531;28;1064;-56
2023/04/14 08:39:26;;;;;;;;;;;;;;;22.65;30.32;94057.78;5094789;28;977;-56
2023/04/14 08:41:53;;;;;;;;;;;;;;;22.78;30.52;94033.66;5094109;28;1244;-58
2023/04/14 08:44:20;;;;;;;;;;;;;;;23.06;31.33;94047.97;5094224;28;1092;-56
2023/04/14 08:46:49;;;;;;;;;;;;;;;23.36;30.64;94052.72;5094696;28;1044;-56
2023/04/14 08:49:18;;;;;;;;;;;;;;;23.45;31.30;94063.94;5094189;28;2164;-57
2023/04/14 08:51:44;;;;;;;;;;;;;;;23.53;31.55;94074.31;5094458;28;1076;-56
2023/04/14 08:54:10;;;;;;;;;;;;;;;23.68;31.17;94070.00;5094268;28;1891;-56
2023/04/14 08:56:38;;;;;;;;;;;;;;;23.70;30.55;94079.53;5094355;28;2003;-56
2023/04/14 08:59:07;;;;;;;;;;;;;;;23.45;30.73;94087.63;5094247;28;1049;-56
2023/04/14 09:01:34;;;;;;;;;;;;;;;23.04;31.91;94110.09;5094444;28;1051;-56
2023/04/14 09:04:02;;;;;;;;;;;;;;;22.97;32.91;94101.31;5094215;28;965;-56
2023/04/14 09:06:29;;;;;;;;;;;;;;;22.87;34.63;94123.06;5093987;28;1057;-56
2023/04/14 09:08:55;;;;;;;;;;;;;;;22.58;34.67;94129.66;5094111;28;1044;-56
2023/04/14 09:11:21;;;;;;;;;;;;;;;21.95;36.21;94126.63;5093745;28;1029;-56
2023/04/14 09:13:48;;;;;;;;;;;;;;;21.53;39.55;94123.72;5093862;28;1254;-56
2023/04/14 09:16:15;;;;;;;;;;;;;;;21.57;41.92;94122.97;5093759;28;1980;-56
2023/04/14 09:18:41;;;;;;;;;;;;;;;21.71;43.78;94117.94;5094131;28;989;-56
2023/04/14 09:21:09;;;;;;;;;;;;;;;22.08;42.20;94128.09;5093913;28;1080;-56
2023/04/14 09:23:36;;;;;;;;;;;;;;;22.07;42.55;94131.09;5093841;28;1017;-56
2023/04/14 09:26:07;;;;;;;;;;;;;;;21.91;41.64;94130.97;5093684;28;1051;-56
2023/04/14 09:28:34;;;;;;;;;;;;;;;21.96;42.83;94141.88;5093701;28;1045;-56
2023/04/14 09:31:01;;;;;;;;;;;;;;;22.04;42.97;94143.31;5093679;28;1121;-56
2023/04/14 09:33:27;;;;;;;;;;;;;;;21.99;41.42;94159.59;5093618;28;1053;-57
2023/04/14 09:35:53;;;;;;;;;;;;;;;21.24;42.23;94154.59;5093598;28;1906;-56
2023/04/14 09:38:32;;;;;;;;;;;;;;;21.15;42.53;94172.44;5093687;28;1035;-57
2023/04/14 09:40:58;;;;;;;;;;;;;;;21.24;43.02;94180.97;5093658;28;1264;-56
2023/04/14 09:43:25;;;;;;;;;;;;;;;21.22;43.39;94213.84;5093403;28;1088;-56
2023/04/14 09:45:52;;;;;;;;;;;;;;;21.15;45.05;94228.69;5093693;28;1040;-56
2023/04/14 09:48:19;;;;;;;;;;;;;;;21.26;43.60;94253.03;5093135;28;1119;-56
2023/04/14 09:50:57;;;;;;;;;;;;;;;21.52;43.67;94245.28;5093639;28;1028;-56
2023/04/14 09:53:30;;;;;;;;;;;;;;;20.76;43.67;94282.97;5092777;28;1061;-56
2023/04/14 09:55:56;;;;;;;;;;;;;;;20.12;44.27;94286.66;5093287;28;1906;-56
2023/04/14 09:58:22;;;;;;;;;;;;;;;19.25;46.32;94296.44;5093604;28;1104;-56
2023/04/14 10:00:50;;;;;;;;;;;;;;;18.33;49.38;94302.25;5093340;28;2000;-56
2023/04/14 10:03:30;;;;;;;;;;;;;;;17.60;51.09;94303.97;5093168;28;1072;-55
2023/04/14 10:05:56;;;;;;;;;;;;;;;17.45;52.58;94281.91;5093640;28;1051;-56
2023/04/14 10:08:32;;;;;;;;;;;;;;;17.24;53.32;94313.69;5093323;28;973;-56
2023/04/14 10:11:12;;;;;;;;;;;;;;;16.50;53.95;94324.22;5093425;28;965;-55
2023/04/14 10:13:38;;;;;;;;;;;;;;;15.79;54.69;94331.47;5093460;28;1130;-55
2023/04/14 10:16:04;;;;;;;;;;;;;;;15.51;55.72;94341.69;5092907;28;1902;-54
2023/04/14 10:18:30;;;;;;;;;;;;;;;15.37;56.69;94371.34;5093379;28;1001;-54
2023/04/14 10:20:57;;;;;;;;;;;;;;;15.22;56.27;94371.56;5093443;28;1055;-54
2023/04/14 10:23:24;;;;;;;;;;;;;;;15.01;57.08;94372.63;5093259;28;1072;-55
2023/04/14 10:25:50;;;;;;;;;;;;;;;14.92;57.06;94371.16;5093191;28;945;-55
2023/04/14 10:28:16;;;;;;;;;;;;;;;14.90;57.27;94385.88;5093075;28;1642;-55
2023/04/14 10:30:43;;;;;;;;;;;;;;;14.75;57.92;94389.56;5093406;28;1044;-56
2023/04/14 10:33:09;;;;;;;;;;;;;;;14.85;57.90;94386.47;5093077;28;1917;-55
2023/04/14 10:35:38;;;;;;;;;;;;;;;14.87;58.66;94397.03;5092955;28;1898;-55
2023/04/14 10:38:04;;;;;;;;;;;;;;;14.77;57.74;94400.13;5092848;28;1108;-54
2023/04/14 10:40:44;;;;;;;;;;;;;;;14.73;57.03;94409.66;5091834;28;1295;-55
2023/04/14 10:43:13;;;;;;;;;;;;;;;14.93;56.78;94434.72;5092840;28;1077;-55
2023/04/14 10:45:52;;;;;;;;;;;;;;;14.82;56.47;94435.34;5093300;28;972;-55
2023/04/14 10:48:18;;;;;;;;;;;;;;;14.56;57.70;94422.63;5093117;28;989;-54
2023/04/14 10:50:46;;;;;;;;;;;;;;;14.47;58.42;94427.34;5091864;28;1072;-55
2023/04/14 10:53:12;;;;;;;;;;;;;;;14.51;58.08;94427.78;5092874;28;920;-54
2023/04/14 10:55:47;;;;;;;;;;;;;;;14.53;58.77;94433.78;5092843;28;1984;-53
2023/04/14 10:58:18;;;;;;;;;;;;;;;14.54;58.81;94432.75;5092841;28;1120;-54
2023/04/14 11:00:44;;;;;;;;;;;;;;;14.46;59.27;94425.72;5092791;28;1249;-54
2023/04/14 11:03:11;;;;;;;;;;;;;;;14.18;62.38;94437.41;5092810;28;1092;-54
2023/04/14 11:05:43;;;;;;;;;;;;;;;14.01;59.02;94439.59;5094702;28;1132;-55
2023/04/14 11:08:23;;;;;;;;;;;;;;;14.00;60.42;94451.38;5092359;28;2071;-54
2023/04/14 11:10:52;;;;;;;;;;;;;;;13.82;60.05;94478.75;5085394;28;1096;-54
2023/04/14 11:13:19;;;;;;;;;;;;;;;13.73;60.27;94496.06;5076079;28;1034;-54
2023/04/14 11:15:56;;;;;;;;;;;;;;;13.92;61.10;94515.19;5095911;28;1914;-54
2023/04/14 11:18:32;;;;;;;;;;;;;;;13.87;56.95;94488.94;5096415;28;1012;-54
2023/04/14 11:21:05;;;;;;;;;;;;;;;13.65;55.51;94480.94;5096219;28;972;-54
2023/04/14 11:23:32;;;;;;;;;;;;;;;13.86;55.21;94469.28;5096131;28;1065;-55
2023/04/14 11:25:58;;;;;;;;;;;;;;;14.02;56.62;94489.66;5089733;28;1509;-55
2023/04/14 11:28:31;;;;;;;;;;;;;;;13.99;55.74;94502.66;5094019;28;984;-55
2023/04/14 11:30:58;;;;;;;;;;;;;;;14.12;53.86;94532.28;5075018;28;977;-55
2023/04/14 11:33:28;;;;;;;;;;;;;;;14.03;53.40;94534.28;5075273;28;953;-55
2023/04/14 11:35:56;;;;;;;;;;;;;;;14.01;53.30;94528.28;5074033;28;1891;-55
2023/04/14 11:38:23;;;;;;;;;;;;;;;13.88;53.50;94527.38;5075543;28;1084;-54
2023/04/14 11:40:52;;;;;;;;;;;;;;;13.64;53.65;94516.06;5078727;28;1777;-55
2023/04/14 11:43:18;;;;;;;;;;;;;;;13.62;54.09;94516.25;5094875;28;1100;-55
2023/04/14 11:45:45;;;;;;;;;;;;;;;13.56;53.54;94510.81;5095337;28;1059;-55
2023/04/14 11:48:12;;;;;;;;;;;;;;;13.36;54.97;94529.47;5094832;28;1039;-55
2023/04/14 11:50:38;;;;;;;;;;;;;;;13.31;55.62;94535.41;5095230;28;1064;-55
2023/04/14 11:53:22;;;;;;;;;;;;;;;13.15;53.99;94535.66;5095393;28;1031;-55
2023/04/14 11:55:49;;;;;;;;;;;;;;;12.92;55.67;94531.31;5095411;28;1902;-55
2023/04/14 11:58:20;;;;;;;;;;;;;;;12.66;54.46;94534.53;5095367;28;1052;-55
2023/04/14 12:00:47;;;;;;;;;;;;;;;12.69;54.57;94520.72;5095192;28;1037;-54
2023/04/14 12:03:13;;;;;;;;;;;;;;;12.79;55.33;94523.94;5095613;28;1044;-54
2023/04/14 12:05:39;;;;;;;;;;;;;;;12.93;57.63;94491.88;5095689;28;961;-54
2023/04/14 12:08:07;;;;;;;;;;;;;;;12.82;53.42;94503.94;5095420;28;1092;-54
2023/04/14 12:10:37;;;;;;;;;;;;;;;12.65;53.38;94506.88;5095349;28;944;-54
2023/04/14 12:13:06;;;;;;;;;;;;;;;12.64;53.82;94497.16;5095566;28;961;-55
2023/04/14 12:15:35;;;;;;;;;;;;;;;12.67;52.57;94480.69;5095342;28;1985;-54
2023/04/14 12:18:07;;;;;;;;;;;;;;;12.28;54.00;94484.59;5094852;28;992;-53
2023/04/14 12:21:00;;;;;;;;;;;;;;;11.97;54.94;94478.59;5095102;28;1840;-54
2023/04/14 12:23:26;;;;;;;;;;;;;;;11.89;55.56;94469.69;5092236;28;1227;-54
2023/04/14 12:25:52;;;;;;;;;;;;;;;11.96;54.32;94450.19;5094121;28;965;-54
2023/04/14 12:28:23;;;;;;;;;;;;;;;12.25;54.04;94438.56;5095153;28;985;-55
2023/04/14 12:30:51;;;;;;;;;;;;;;;12.16;53.37;94427.13;5095140;28;1052;-53
2023/04/14 12:33:20;;;;;;;;;;;;;;;11.90;54.67;94420.44;5095131;28;1055;-54
2023/04/14 12:35:49;;;;;;;;;;;;;;;11.62;57.21;94390.78;5094721;28;1985;-54
2023/04/14 12:38:15;;;;;;;;;;;;;;;11.69;56.19;94372.13;5094732;28;1035;-53
2023/04/14 12:40:45;;;;;;;;;;;;;;;11.49;55.62;94367.34;5094895;28;1796;-53
2023/04/14 12:43:12;;;;;;;;;;;;;;;11.64;55.23;94388.75;5094560;28;1112;-53
2023/04/14 12:45:39;;;;;;;;;;;;;;;11.57;55.31;94365.59;5094744;28;1041;-54
2023/04/14 12:48:05;;;;;;;;;;;;;;;11.63;53.29;94370.19;5094627;28;1205;-55
2023/04/14 12:50:32;;;;;;;;;;;;;;;12.06;51.14;94356.94;5094484;28;1105;-55
2023/04/14 12:53:02;;;;;;;;;;;;;;;12.26;47.17;94359.84;5091667;28;1576;-55
2023/04/14 12:55:29;;;;;;;;;;;;;;;12.90;44.03;94353.59;5094539;28;1906;-56
2023/04/14 12:57:55;;;;;;;;;;;;;;;13.05;45.62;94306.03;5094678;28;1391;-54
2023/04/14 13:00:22;;;;;;;;;;;;;;;13.09;45.41;94317.19;5094356;28;1048;-54
2023/04/14 13:02:49;;;;;;;;;;;;;;;12.78;47.94;94294.25;5094124;28;1265;-55